createdAt,value
2023-02-11T00:03:27.560Z,31.87
2023-02-11T00:08:30.161Z,40.00
2023-02-11T00:13:34.620Z,42.23
2023-02-11T00:18:37.241Z,34.60
2023-02-11T00:23:40.000Z,36.50
2023-02-11T00:28:44.302Z,33.20
2023-02-11T00:33:47.357Z,32.90
2023-02-11T00:38:51.072Z,31.10
2023-02-11T00:43:55.058Z,29.87
2023-02-11T00:48:57.929Z,32.23
2023-02-11T00:54:00.633Z,33.27
2023-02-11T00:59:04.602Z,28.77
2023-02-11T01:04:07.172Z,31.33
2023-02-11T01:09:09.763Z,30.30
2023-02-11T01:14:13.786Z,34.67
2023-02-11T01:19:16.348Z,31.23
2023-02-11T01:24:21.726Z,32.60
2023-02-11T01:29:25.654Z,29.53
2023-02-11T01:34:30.398Z,29.40
2023-02-11T01:39:33.977Z,28.90
2023-02-11T01:44:39.992Z,29.93
2023-02-11T01:49:48.739Z,29.77
2023-02-11T01:55:14.326Z,27.07
2023-02-11T02:05:55.454Z,28.67
2023-02-11T02:11:00.722Z,23.73
2023-02-11T02:16:08.600Z,27.20
2023-02-11T02:21:38.732Z,33.00
2023-02-11T02:27:00.343Z,26.10
2023-02-11T02:32:34.468Z,33.27
2023-02-11T02:37:43.022Z,24.43
2023-02-11T02:42:46.201Z,29.03
2023-02-11T02:47:50.371Z,30.60
2023-02-11T02:53:01.057Z,22.67
2023-02-11T02:58:25.395Z,29.60
2023-02-11T03:03:36.869Z,31.40
2023-02-11T03:08:44.701Z,24.43
2023-02-11T03:13:50.414Z,24.40
2023-02-11T03:18:58.614Z,23.20
2023-02-11T03:24:06.736Z,25.40
2023-02-11T03:29:15.443Z,22.33
2023-02-11T03:34:28.460Z,27.80
2023-02-11T03:39:37.457Z,24.40
2023-02-11T03:44:45.205Z,25.33
2023-02-11T03:49:52.214Z,30.60
2023-02-11T03:54:58.945Z,21.37
2023-02-11T04:00:02.106Z,22.67
2023-02-11T04:05:17.050Z,27.87
2023-02-11T04:10:19.821Z,28.40
2023-02-11T04:15:22.675Z,17.87
2023-02-11T04:20:26.575Z,24.50
2023-02-11T04:25:29.122Z,22.07
2023-02-11T04:30:31.775Z,21.33
2023-02-11T04:35:35.814Z,21.20
2023-02-11T04:40:38.605Z,26.83
2023-02-11T04:45:41.343Z,19.70
2023-02-11T04:50:45.228Z,24.60
2023-02-11T04:55:50.561Z,23.80
2023-02-11T05:00:53.458Z,29.90
2023-02-11T05:05:57.339Z,26.83
2023-02-11T05:11:01.998Z,26.83
2023-02-11T05:16:04.993Z,24.93
2023-02-11T05:21:10.448Z,29.23
2023-02-11T05:26:13.912Z,34.23
2023-02-11T05:31:16.769Z,32.10
2023-02-11T05:36:20.862Z,32.57
2023-02-11T05:41:23.476Z,33.13
2023-02-11T05:46:26.163Z,33.47
2023-02-11T05:51:30.158Z,35.33
2023-02-11T05:56:33.156Z,35.43
2023-02-11T06:01:35.799Z,49.83
2023-02-11T06:06:39.974Z,38.63
2023-02-11T06:11:42.693Z,40.77
2023-02-11T06:16:45.385Z,42.40
2023-02-11T06:21:49.420Z,40.37
2023-02-11T06:26:52.124Z,38.93
2023-02-11T06:31:54.819Z,40.27
2023-02-11T06:36:58.788Z,39.23
2023-02-11T06:42:01.355Z,44.73
2023-02-11T06:47:04.019Z,40.50
2023-02-11T06:52:07.913Z,29.80
2023-02-11T06:57:10.457Z,32.33
2023-02-11T07:02:13.096Z,48.10
2023-02-11T07:07:17.033Z,40.87
2023-02-11T07:12:19.578Z,44.20
2023-02-11T07:17:22.117Z,34.53
2023-02-11T07:22:26.445Z,48.03
2023-02-11T07:27:29.017Z,38.57
2023-02-11T07:32:31.561Z,53.30
2023-02-11T07:37:36.593Z,45.30
2023-02-11T07:42:40.340Z,53.07
2023-02-11T07:47:43.366Z,34.53
2023-02-11T07:52:47.391Z,41.73
2023-02-11T07:57:50.721Z,39.20
2023-02-11T08:02:53.275Z,46.53
2023-02-11T08:07:57.179Z,37.47
2023-02-11T08:12:59.740Z,41.03
2023-02-11T08:18:02.272Z,40.87
2023-02-11T08:23:08.097Z,43.47
2023-02-11T08:28:10.697Z,40.50
2023-02-11T08:33:13.250Z,43.23
2023-02-11T08:38:17.529Z,35.20
2023-02-11T08:43:20.172Z,40.17
2023-02-11T08:48:23.327Z,43.40
2023-02-11T08:53:28.010Z,38.13
2023-02-11T08:58:30.849Z,43.13
2023-02-11T09:03:33.419Z,39.07
2023-02-11T09:08:38.333Z,49.30
2023-02-11T09:13:42.665Z,47.83
2023-02-11T09:18:45.751Z,37.00
2023-02-11T09:23:49.802Z,46.73
2023-02-11T09:28:52.798Z,45.07
2023-02-11T09:33:57.402Z,54.13
2023-02-11T09:39:02.957Z,43.77
2023-02-11T09:44:08.948Z,50.77
2023-02-11T09:49:20.880Z,49.70
2023-02-11T09:54:31.100Z,45.10
2023-02-11T09:59:34.722Z,47.53
2023-02-11T10:04:58.320Z,55.87
2023-02-11T10:10:15.151Z,49.40
2023-02-11T10:15:28.398Z,52.93
2023-02-11T10:20:35.821Z,50.93
2023-02-11T10:25:45.431Z,52.33
2023-02-11T10:30:56.813Z,54.30
2023-02-11T10:35:59.816Z,55.30
2023-02-11T10:41:03.784Z,61.87
2023-02-11T10:46:06.899Z,54.30
2023-02-11T10:51:17.595Z,58.67
2023-02-11T10:56:28.910Z,55.13
2023-02-11T11:01:42.811Z,57.33
2023-02-11T11:06:45.456Z,57.00
2023-02-11T11:11:54.126Z,67.60
2023-02-11T11:16:56.729Z,59.97
2023-02-11T11:22:00.223Z,65.83
2023-02-11T11:27:06.042Z,58.90
2023-02-11T11:32:18.282Z,63.47
2023-02-11T11:37:25.500Z,56.80
2023-02-11T11:42:32.086Z,59.43
2023-02-11T11:47:42.206Z,61.23
2023-02-11T11:52:51.056Z,51.97
2023-02-11T11:57:55.016Z,60.63
2023-02-11T12:03:18.445Z,54.43
2023-02-11T12:08:31.758Z,57.13
2023-02-11T12:13:53.678Z,58.47
2023-02-11T12:19:28.006Z,52.40
2023-02-11T12:24:42.132Z,58.27
2023-02-11T12:29:59.890Z,54.80
2023-02-11T12:35:22.105Z,55.47
2023-02-11T12:40:32.045Z,52.57
2023-02-11T12:46:01.847Z,51.10
2023-02-11T12:51:15.279Z,58.17
2023-02-11T12:56:24.157Z,52.00
2023-02-11T13:01:33.073Z,59.33
2023-02-11T13:06:40.974Z,55.53
2023-02-11T13:11:51.845Z,56.63
2023-02-11T13:16:57.895Z,48.60
2023-02-11T13:22:08.296Z,52.20
2023-02-11T13:27:30.655Z,53.07
2023-02-11T13:39:23.294Z,46.83
2023-02-11T13:44:28.952Z,53.60
2023-02-11T13:49:40.386Z,53.57
2023-02-11T13:54:50.457Z,61.73
2023-02-11T13:59:54.046Z,48.67
2023-02-11T14:05:31.670Z,55.47
2023-02-11T14:10:53.374Z,47.93
2023-02-11T14:16:08.042Z,59.67
2023-02-11T14:21:14.048Z,51.13
2023-02-11T14:26:32.294Z,45.03
2023-02-11T14:31:42.462Z,41.53
2023-02-11T14:36:58.042Z,49.37
2023-02-11T14:42:04.571Z,44.30
2023-02-11T14:47:09.862Z,52.13
2023-02-11T14:52:23.896Z,42.60
2023-02-11T14:57:29.620Z,47.53
2023-02-11T15:02:36.232Z,49.00
2023-02-11T15:07:44.000Z,42.17
2023-02-11T15:12:51.374Z,45.87
2023-02-11T15:17:57.185Z,46.67
2023-02-11T15:23:03.635Z,48.97
2023-02-11T15:28:16.771Z,68.70
2023-02-11T15:33:25.457Z,46.33
2023-02-11T15:38:29.934Z,41.73
2023-02-11T15:43:45.206Z,43.70
2023-02-11T15:48:51.054Z,40.73
2023-02-11T15:53:58.575Z,34.80
2023-02-11T15:59:13.942Z,47.73
2023-02-11T16:04:20.298Z,50.20
2023-02-11T16:09:43.310Z,50.83
2023-02-11T16:14:48.053Z,49.67
2023-02-11T16:19:54.854Z,50.93
2023-02-11T16:25:00.199Z,48.77
2023-02-11T16:30:05.649Z,55.40
2023-02-11T16:35:12.833Z,57.80
2023-02-11T16:40:16.606Z,54.17
2023-02-11T16:45:21.453Z,52.33
2023-02-11T16:50:26.647Z,55.53
2023-02-11T16:55:29.951Z,61.40
2023-02-11T17:00:34.895Z,56.00
2023-02-11T17:05:54.406Z,58.03
2023-02-11T17:10:58.252Z,52.27
2023-02-11T17:16:03.368Z,50.60
2023-02-11T17:21:07.774Z,58.07
2023-02-11T17:26:10.916Z,63.80
2023-02-11T17:31:16.966Z,59.90
2023-02-11T17:36:20.542Z,59.83
2023-02-11T17:41:23.674Z,57.70
2023-02-11T17:46:29.566Z,60.60
2023-02-11T17:51:34.427Z,54.80
2023-02-11T17:56:38.299Z,63.60
2023-02-11T18:01:44.513Z,64.60
2023-02-11T18:06:48.097Z,64.53
2023-02-11T18:11:52.681Z,67.37
2023-02-11T18:16:57.261Z,58.87
2023-02-11T18:22:01.140Z,60.13
2023-02-11T18:27:04.729Z,84.90
2023-02-11T18:32:09.399Z,66.53
2023-02-11T18:37:14.041Z,62.33
2023-02-11T18:42:17.212Z,71.40
2023-02-11T18:47:22.206Z,74.00
2023-02-11T18:52:25.328Z,66.13
2023-02-11T18:57:28.437Z,61.97
2023-02-11T19:02:33.033Z,72.37
2023-02-11T19:07:36.493Z,78.53
2023-02-11T19:12:40.083Z,69.63
2023-02-11T19:17:44.198Z,74.70
2023-02-11T19:22:46.839Z,71.50
2023-02-11T19:27:49.377Z,71.43
2023-02-11T19:32:56.900Z,66.30
2023-02-11T19:37:59.452Z,74.77
2023-02-11T19:43:01.987Z,71.00
2023-02-11T19:48:06.154Z,69.13
2023-02-11T19:53:08.789Z,64.63
2023-02-11T19:58:11.354Z,68.60
2023-02-11T20:03:15.301Z,68.90
2023-02-11T20:08:18.492Z,81.90
2023-02-11T20:13:21.465Z,100.03
2023-02-11T20:18:25.368Z,70.00
2023-02-11T20:23:29.211Z,66.37
2023-02-11T20:28:31.951Z,70.30
2023-02-11T20:33:35.845Z,77.00
2023-02-11T20:38:39.038Z,65.50
2023-02-11T20:43:41.875Z,212.67
2023-02-11T20:48:45.856Z,74.47
2023-02-11T20:53:50.987Z,67.90
2023-02-11T20:58:54.288Z,73.17
2023-02-11T21:03:59.388Z,115.27
2023-02-11T21:09:02.027Z,111.23
2023-02-11T21:14:05.406Z,72.40
2023-02-11T21:19:09.322Z,69.67
2023-02-11T21:24:12.809Z,63.77
2023-02-11T21:29:15.387Z,71.13
2023-02-11T21:34:20.022Z,65.10
2023-02-11T21:39:22.583Z,63.37
2023-02-11T21:44:25.228Z,63.30
2023-02-11T21:49:29.860Z,70.03
2023-02-11T21:54:33.154Z,61.83
2023-02-11T21:59:35.701Z,74.53
2023-02-11T22:04:39.610Z,65.23
2023-02-11T22:09:42.329Z,68.33
2023-02-11T22:14:46.214Z,59.37
2023-02-11T22:19:50.413Z,61.40
2023-02-11T22:24:53.931Z,64.43
2023-02-11T22:29:56.880Z,60.47
2023-02-11T22:35:00.897Z,85.87
2023-02-11T22:40:03.435Z,67.33
2023-02-11T22:45:07.308Z,56.90
2023-02-11T22:50:11.971Z,61.83
2023-02-11T22:55:14.849Z,63.83
2023-02-11T23:00:18.864Z,68.00
2023-02-11T23:05:23.020Z,69.40
2023-02-11T23:10:25.607Z,59.73
2023-02-11T23:15:28.173Z,63.60
2023-02-11T23:20:32.064Z,54.77
2023-02-11T23:25:35.075Z,59.50
2023-02-11T23:30:37.707Z,62.23
2023-02-11T23:35:41.663Z,57.63
2023-02-11T23:40:44.621Z,58.80
2023-02-11T23:45:48.741Z,62.57
2023-02-11T23:50:52.728Z,60.33
2023-02-11T23:55:55.642Z,61.43
